createdAt,value
2018-07-25T00:00:39.515Z,18.70
2018-07-25T00:03:07.981Z,18.70
2018-07-25T00:05:36.553Z,18.60
2018-07-25T00:08:05.102Z,18.50
2018-07-25T00:11:06.398Z,18.50
2018-07-25T00:13:34.903Z,18.50
2018-07-25T00:16:03.415Z,18.50
2018-07-25T00:18:31.895Z,18.40
2018-07-25T00:21:00.363Z,18.30
2018-07-25T00:23:28.954Z,18.20
2018-07-25T00:25:57.425Z,18.20
2018-07-25T00:28:25.904Z,18.20
2018-07-25T00:30:54.414Z,18.20
2018-07-25T00:33:22.867Z,18.10
2018-07-25T00:35:51.361Z,18.00
2018-07-25T00:38:19.831Z,18.00
2018-07-25T00:40:48.332Z,18.00
2018-07-25T00:43:16.804Z,18.00
2018-07-25T00:45:45.547Z,18.00
2018-07-25T00:48:14.035Z,17.90
2018-07-25T00:50:42.548Z,17.90
2018-07-25T00:53:11.045Z,17.90
2018-07-25T00:55:39.581Z,17.90
2018-07-25T00:58:08.368Z,17.90
2018-07-25T01:00:36.854Z,17.80
2018-07-25T01:03:05.326Z,17.80
2018-07-25T01:05:33.802Z,17.70
2018-07-25T01:08:02.309Z,17.70
2018-07-25T01:10:30.808Z,17.70
2018-07-25T01:12:59.409Z,17.70
2018-07-25T01:15:27.881Z,17.60
2018-07-25T01:17:56.360Z,17.60
2018-07-25T01:20:24.867Z,17.60
2018-07-25T01:22:53.356Z,17.50
2018-07-25T01:25:21.844Z,17.50
2018-07-25T01:27:50.332Z,17.50
2018-07-25T01:30:18.811Z,17.50
2018-07-25T01:32:47.288Z,17.50
2018-07-25T01:35:15.778Z,17.40
2018-07-25T01:37:44.273Z,17.40
2018-07-25T01:40:12.874Z,17.40
2018-07-25T01:42:41.467Z,17.40
2018-07-25T01:45:10.006Z,17.40
2018-07-25T01:47:38.546Z,17.40
2018-07-25T01:50:07.744Z,17.40
2018-07-25T01:52:36.221Z,17.30
2018-07-25T01:55:06.018Z,17.20
2018-07-25T01:57:34.514Z,17.20
2018-07-25T02:00:03.036Z,17.20
2018-07-25T02:02:31.534Z,17.20
2018-07-25T02:04:59.992Z,17.20
2018-07-25T02:07:28.452Z,17.10
2018-07-25T02:09:56.954Z,17.10
2018-07-25T02:12:25.444Z,17.10
2018-07-25T02:14:53.973Z,17.10
2018-07-25T02:17:22.462Z,17.00
2018-07-25T02:19:50.945Z,17.00
2018-07-25T02:22:19.643Z,17.00
2018-07-25T02:24:48.146Z,16.90
2018-07-25T02:27:16.642Z,16.90
2018-07-25T02:29:45.164Z,17.00
2018-07-25T02:32:13.647Z,17.00
2018-07-25T02:34:42.147Z,17.00
2018-07-25T02:37:10.598Z,16.90
2018-07-25T02:39:39.095Z,16.90
2018-07-25T02:42:07.695Z,16.90
2018-07-25T02:44:36.193Z,16.90
2018-07-25T02:47:04.698Z,16.80
2018-07-25T02:49:33.343Z,16.90
2018-07-25T02:52:01.829Z,16.90
2018-07-25T02:54:30.303Z,16.90
2018-07-25T02:56:58.810Z,16.80
2018-07-25T02:59:27.270Z,16.70
2018-07-25T03:01:55.732Z,16.70
2018-07-25T03:04:24.221Z,16.70
2018-07-25T03:06:52.718Z,16.70
2018-07-25T03:09:21.216Z,16.70
2018-07-25T03:11:49.697Z,16.60
2018-07-25T03:14:18.212Z,16.70
2018-07-25T03:16:46.778Z,16.60
2018-07-25T03:19:15.221Z,16.50
2018-07-25T03:21:43.719Z,16.50
2018-07-25T03:24:12.250Z,16.50
2018-07-25T03:26:40.720Z,16.50
2018-07-25T03:29:09.259Z,16.50
2018-07-25T03:31:37.777Z,16.50
2018-07-25T03:34:06.287Z,16.40
2018-07-25T03:36:34.804Z,16.40
2018-07-25T03:39:03.405Z,16.50
2018-07-25T03:41:31.916Z,16.40
2018-07-25T03:44:00.393Z,16.40
2018-07-25T03:46:28.893Z,16.40
2018-07-25T03:48:57.395Z,16.40
2018-07-25T03:51:25.890Z,16.40
2018-07-25T03:53:54.374Z,16.40
2018-07-25T03:56:22.866Z,16.40
2018-07-25T03:58:51.358Z,16.50
2018-07-25T04:01:19.926Z,16.40
2018-07-25T04:03:48.420Z,16.40
2018-07-25T04:06:16.907Z,16.40
2018-07-25T04:08:45.388Z,16.40
2018-07-25T04:11:14.018Z,16.50
2018-07-25T04:13:42.522Z,16.50
2018-07-25T04:16:11.086Z,16.40
2018-07-25T04:18:39.646Z,16.40
2018-07-25T04:21:08.157Z,16.50
2018-07-25T04:23:36.692Z,16.60
2018-07-25T04:26:05.341Z,16.60
2018-07-25T04:28:33.867Z,16.60
2018-07-25T04:31:02.453Z,16.60
2018-07-25T04:33:30.958Z,16.70
2018-07-25T04:35:59.482Z,16.60
2018-07-25T04:38:27.964Z,16.60
2018-07-25T04:40:56.445Z,16.70
2018-07-25T04:43:24.987Z,16.70
2018-07-25T04:45:53.569Z,16.80
2018-07-25T04:48:22.193Z,16.90
2018-07-25T04:50:50.711Z,16.90
2018-07-25T04:53:19.250Z,17.00
2018-07-25T04:55:47.771Z,17.00
2018-07-25T04:58:16.322Z,17.10
2018-07-25T05:00:44.898Z,17.10
2018-07-25T05:03:13.386Z,17.10
2018-07-25T05:05:41.875Z,17.20
2018-07-25T05:08:10.409Z,17.20
2018-07-25T05:10:38.945Z,17.30
2018-07-25T05:13:07.595Z,17.40
2018-07-25T05:15:36.115Z,17.50
2018-07-25T05:18:04.646Z,17.60
2018-07-25T05:20:33.153Z,17.70
2018-07-25T05:23:01.667Z,17.80
2018-07-25T05:25:30.206Z,18.00
2018-07-25T05:27:58.803Z,18.10
2018-07-25T05:30:27.264Z,18.20
2018-07-25T05:32:55.770Z,18.30
2018-07-25T05:35:24.263Z,18.40
2018-07-25T05:37:52.776Z,18.50
2018-07-25T05:40:21.252Z,18.60
2018-07-25T05:42:49.766Z,18.70
2018-07-25T05:45:18.265Z,18.80
2018-07-25T05:47:46.750Z,18.90
2018-07-25T05:52:43.380Z,19.20
2018-07-25T05:55:11.887Z,19.30
2018-07-25T05:57:40.355Z,19.40
2018-07-25T06:00:08.923Z,19.50
2018-07-25T06:02:37.433Z,19.70
2018-07-25T06:05:05.972Z,19.80
2018-07-25T06:07:34.537Z,19.90
2018-07-25T06:10:03.076Z,20.00
2018-07-25T06:12:31.546Z,20.20
2018-07-25T06:15:00.024Z,20.30
2018-07-25T06:17:28.806Z,20.50
2018-07-25T06:19:57.321Z,20.80
2018-07-25T06:22:25.802Z,20.80
2018-07-25T06:24:54.316Z,20.90
2018-07-25T06:27:22.794Z,21.20
2018-07-25T06:29:51.253Z,21.50
2018-07-25T06:32:20.091Z,21.80
2018-07-25T06:34:48.743Z,21.90
2018-07-25T06:37:17.195Z,22.10
2018-07-25T06:39:45.767Z,22.30
2018-07-25T06:42:14.613Z,22.40
2018-07-25T06:44:43.071Z,22.60
2018-07-25T06:47:11.702Z,22.70
2018-07-25T06:49:40.291Z,22.90
2018-07-25T06:52:08.838Z,23.20
2018-07-25T06:54:37.603Z,23.80
2018-07-25T06:57:06.256Z,24.50
2018-07-25T06:59:34.748Z,25.40
2018-07-25T07:02:03.622Z,26.30
2018-07-25T07:04:32.071Z,27.00
2018-07-25T07:07:00.634Z,27.50
2018-07-25T07:09:29.221Z,28.00
2018-07-25T07:11:57.812Z,28.30
2018-07-25T07:14:26.289Z,29.10
2018-07-25T07:16:54.931Z,29.60
2018-07-25T07:19:23.448Z,30.10
2018-07-25T07:21:51.935Z,30.10
2018-07-25T07:24:20.462Z,30.60
2018-07-25T07:26:48.927Z,31.00
2018-07-25T07:29:17.437Z,31.10
2018-07-25T07:31:45.979Z,31.30
2018-07-25T07:34:14.790Z,31.70
2018-07-25T07:36:43.359Z,31.60
2018-07-25T07:39:13.380Z,32.50
2018-07-25T07:41:42.255Z,33.00
2018-07-25T07:44:10.908Z,33.60
2018-07-25T07:46:39.498Z,33.40
2018-07-25T07:49:08.012Z,33.50
2018-07-25T07:51:36.494Z,33.70
2018-07-25T07:54:05.150Z,34.10
2018-07-25T07:56:33.788Z,33.50
2018-07-25T07:59:02.304Z,34.20
2018-07-25T08:01:30.806Z,35.30
2018-07-25T08:03:59.280Z,34.80
2018-07-25T08:06:27.747Z,34.50
2018-07-25T08:08:56.222Z,35.40
2018-07-25T08:11:24.698Z,35.50
2018-07-25T08:13:53.129Z,35.30
2018-07-25T08:16:21.607Z,35.20
2018-07-25T08:18:50.138Z,35.80
2018-07-25T08:21:18.716Z,35.70
2018-07-25T08:23:47.339Z,35.50
2018-07-25T08:26:15.817Z,36.10
2018-07-25T08:28:44.494Z,36.40
2018-07-25T08:31:12.975Z,36.90
2018-07-25T08:33:41.467Z,37.10
2018-07-25T08:36:10.002Z,37.00
2018-07-25T08:41:11.200Z,36.40
2018-07-25T08:43:41.083Z,36.30
2018-07-25T08:46:10.835Z,36.80
2018-07-25T08:48:39.696Z,37.80
2018-07-25T08:51:08.255Z,37.50
2018-07-25T08:53:37.247Z,37.90
2018-07-25T08:56:05.984Z,37.70
2018-07-25T08:58:34.477Z,38.90
2018-07-25T09:01:03.011Z,39.00
2018-07-25T09:03:31.577Z,38.50
2018-07-25T09:06:00.183Z,38.40
2018-07-25T09:08:28.639Z,38.90
2018-07-25T09:10:57.146Z,38.90
2018-07-25T09:13:25.664Z,38.80
2018-07-25T09:15:54.183Z,39.10
2018-07-25T09:18:22.666Z,39.40
2018-07-25T09:20:51.135Z,39.50
2018-07-25T09:23:19.583Z,40.40
2018-07-25T09:25:48.039Z,40.70
2018-07-25T09:28:16.526Z,40.20
2018-07-25T09:30:45.101Z,40.10
2018-07-25T09:33:13.605Z,40.40
2018-07-25T09:35:42.103Z,41.10
2018-07-25T09:38:11.070Z,42.10
2018-07-25T09:40:39.592Z,41.80
2018-07-25T09:43:08.170Z,41.80
2018-07-25T09:45:36.750Z,41.50
2018-07-25T09:48:05.496Z,41.60
2018-07-25T09:50:34.173Z,40.20
2018-07-25T09:53:02.711Z,41.20
2018-07-25T09:55:31.174Z,42.30
2018-07-25T09:58:00.064Z,42.60
2018-07-25T10:01:01.331Z,41.30
2018-07-25T10:03:30.081Z,42.10
2018-07-25T10:05:58.728Z,42.90
2018-07-25T10:08:27.376Z,43.20
2018-07-25T10:13:24.238Z,42.10
2018-07-25T10:15:52.816Z,41.60
2018-07-25T10:18:21.338Z,40.20
2018-07-25T10:20:49.879Z,40.40
2018-07-25T10:23:18.358Z,41.00
2018-07-25T10:25:46.843Z,41.70
2018-07-25T10:28:15.368Z,42.10
2018-07-25T10:30:43.872Z,41.30
2018-07-25T10:33:12.482Z,41.90
2018-07-25T10:35:40.962Z,42.70
2018-07-25T10:38:09.466Z,43.10
2018-07-25T10:40:38.048Z,42.30
2018-07-25T10:45:34.768Z,40.40
2018-07-25T10:48:03.328Z,39.20
2018-07-25T10:50:31.850Z,37.70
2018-07-25T10:53:00.390Z,38.20
2018-07-25T10:55:28.870Z,37.20
2018-07-25T10:57:57.343Z,36.00
2018-07-25T11:00:25.827Z,35.10
2018-07-25T11:02:54.388Z,34.10
2018-07-25T11:05:22.895Z,33.30
2018-07-25T11:07:51.403Z,32.50
2018-07-25T11:10:19.899Z,32.30
2018-07-25T11:12:48.422Z,31.90
2018-07-25T11:15:16.935Z,31.60
2018-07-25T11:17:45.425Z,31.60
2018-07-25T11:20:13.984Z,31.10
2018-07-25T11:22:42.482Z,30.90
2018-07-25T11:25:10.950Z,30.80
2018-07-25T11:27:39.419Z,31.60
2018-07-25T11:30:08.049Z,31.90
2018-07-25T11:32:36.566Z,31.60
2018-07-25T11:35:05.979Z,31.70
2018-07-25T11:37:34.419Z,32.50
2018-07-25T11:40:03.920Z,33.30
2018-07-25T11:42:32.500Z,33.60
2018-07-25T11:45:01.000Z,34.00
2018-07-25T11:47:29.491Z,34.10
2018-07-25T11:49:57.991Z,34.30
2018-07-25T11:52:26.528Z,34.40
2018-07-25T11:54:55.115Z,34.90
2018-07-25T11:57:23.591Z,34.80
2018-07-25T11:59:52.071Z,34.60
2018-07-25T12:02:20.551Z,34.10
2018-07-25T12:04:49.173Z,33.70
2018-07-25T12:07:17.764Z,33.50
2018-07-25T12:09:46.298Z,33.10
2018-07-25T12:12:14.765Z,32.60
2018-07-25T12:14:43.271Z,32.90
2018-07-25T12:17:11.795Z,33.30
2018-07-25T12:19:40.299Z,33.70
2018-07-25T12:22:08.975Z,34.00
2018-07-25T12:24:37.571Z,34.30
2018-07-25T12:27:06.159Z,34.40
2018-07-25T12:29:34.847Z,34.40
2018-07-25T12:32:03.546Z,34.60
2018-07-25T12:34:31.963Z,34.60
2018-07-25T12:37:00.496Z,34.40
2018-07-25T12:39:29.041Z,34.50
2018-07-25T12:41:57.571Z,34.20
2018-07-25T12:44:26.371Z,34.40
2018-07-25T12:46:54.887Z,34.30
2018-07-25T12:49:23.467Z,34.20
2018-07-25T12:51:52.087Z,34.30
2018-07-25T12:54:20.582Z,34.60
2018-07-25T12:56:49.094Z,34.60
2018-07-25T12:59:17.563Z,33.90
2018-07-25T13:01:46.039Z,33.70
2018-07-25T13:04:14.560Z,33.60
2018-07-25T13:06:43.119Z,33.60
2018-07-25T13:09:12.462Z,33.20
2018-07-25T13:11:41.001Z,32.70
2018-07-25T13:14:10.064Z,32.10
2018-07-25T13:16:38.873Z,32.10
2018-07-25T13:19:07.378Z,32.20
2018-07-25T13:21:36.263Z,32.60
2018-07-25T13:24:04.867Z,33.00
2018-07-25T13:26:33.371Z,33.40
2018-07-25T13:29:01.886Z,33.90
2018-07-25T13:31:30.379Z,33.80
2018-07-25T13:33:58.866Z,33.70
2018-07-25T13:36:27.372Z,34.00
2018-07-25T13:38:55.904Z,33.90
2018-07-25T13:41:24.429Z,34.00
2018-07-25T13:43:52.916Z,33.90
2018-07-25T13:46:22.087Z,34.20
2018-07-25T13:48:50.435Z,34.10
2018-07-25T13:51:19.071Z,34.30
2018-07-25T13:53:47.838Z,34.10
2018-07-25T13:56:16.472Z,33.30
2018-07-25T13:58:45.219Z,32.90
2018-07-25T14:01:13.947Z,32.70
2018-07-25T14:03:42.513Z,32.40
2018-07-25T14:06:11.012Z,32.00
2018-07-25T14:08:39.975Z,31.80
2018-07-25T14:11:09.080Z,32.00
2018-07-25T14:13:37.560Z,32.50
2018-07-25T14:16:06.770Z,32.80
2018-07-25T14:18:35.381Z,33.10
2018-07-25T14:21:03.947Z,33.30
2018-07-25T14:23:32.514Z,33.60
2018-07-25T14:26:01.105Z,33.60
2018-07-25T14:28:29.662Z,33.20
2018-07-25T14:30:58.258Z,32.90
2018-07-25T14:33:26.799Z,32.60
2018-07-25T14:35:55.387Z,32.30
2018-07-25T14:38:23.937Z,32.40
2018-07-25T14:40:52.487Z,32.70
2018-07-25T14:43:21.071Z,32.90
2018-07-25T14:45:49.555Z,33.30
2018-07-25T14:48:18.089Z,33.50
2018-07-25T14:50:46.594Z,33.40
2018-07-25T14:53:15.926Z,33.20
2018-07-25T14:55:44.532Z,33.00
2018-07-25T15:00:41.250Z,33.50
2018-07-25T15:03:09.786Z,33.60
2018-07-25T15:08:07.519Z,33.50
2018-07-25T15:10:36.066Z,33.40
2018-07-25T15:13:04.563Z,33.00
2018-07-25T15:15:33.081Z,32.60
2018-07-25T15:18:01.640Z,32.30
2018-07-25T15:20:30.155Z,32.00
2018-07-25T15:22:58.671Z,31.70
2018-07-25T15:25:27.201Z,31.50
2018-07-25T15:27:55.715Z,31.30
2018-07-25T15:30:24.252Z,31.00
2018-07-25T15:32:52.803Z,30.90
2018-07-25T15:35:21.341Z,30.90
2018-07-25T15:37:49.899Z,30.80
2018-07-25T15:40:18.450Z,30.80
2018-07-25T15:42:47.030Z,30.80
2018-07-25T15:47:43.834Z,31.50
2018-07-25T15:50:12.381Z,31.70
2018-07-25T15:52:40.893Z,31.90
2018-07-25T15:55:09.407Z,32.00
2018-07-25T15:57:38.012Z,32.00
2018-07-25T16:00:07.975Z,32.20
2018-07-25T16:02:36.494Z,32.30
2018-07-25T16:05:05.080Z,32.20
2018-07-25T16:07:33.647Z,32.10
2018-07-25T16:10:02.166Z,32.20
2018-07-25T16:12:30.697Z,32.30
2018-07-25T16:14:59.219Z,32.20
2018-07-25T16:17:27.764Z,31.90
2018-07-25T16:19:56.395Z,31.90
2018-07-25T16:22:24.974Z,31.50
2018-07-25T16:24:53.520Z,31.40
2018-07-25T16:27:22.096Z,31.20
2018-07-25T16:29:50.611Z,31.00
2018-07-25T16:32:19.203Z,30.80
2018-07-25T16:34:47.728Z,30.50
2018-07-25T16:37:16.281Z,30.30
2018-07-25T16:39:44.771Z,30.10
2018-07-25T16:42:13.323Z,29.90
2018-07-25T16:44:41.815Z,29.70
2018-07-25T16:47:10.393Z,29.60
2018-07-25T16:49:38.942Z,29.70
2018-07-25T16:52:07.498Z,29.90
2018-07-25T16:54:36.024Z,29.90
2018-07-25T16:57:04.747Z,29.90
2018-07-25T16:59:33.274Z,30.00
2018-07-25T17:02:01.838Z,30.10
2018-07-25T17:04:30.403Z,30.10
2018-07-25T17:06:58.931Z,30.00
2018-07-25T17:09:27.446Z,30.00
2018-07-25T17:11:55.958Z,30.10
2018-07-25T17:14:24.573Z,30.00
2018-07-25T17:19:21.291Z,30.00
2018-07-25T17:21:49.792Z,30.00
2018-07-25T17:24:18.350Z,30.00
2018-07-25T17:26:46.886Z,30.00
2018-07-25T17:29:15.383Z,29.90
2018-07-25T17:31:43.922Z,29.90
2018-07-25T17:34:12.440Z,29.90
2018-07-25T17:36:41.087Z,29.80
2018-07-25T17:39:10.914Z,29.90
2018-07-25T17:41:40.251Z,29.90
2018-07-25T17:44:08.805Z,29.80
2018-07-25T17:46:37.370Z,29.70
2018-07-25T17:49:05.957Z,29.50
2018-07-25T17:51:34.643Z,29.30
2018-07-25T17:54:03.209Z,29.10
2018-07-25T17:56:31.733Z,29.00
2018-07-25T17:59:00.233Z,28.90
2018-07-25T18:01:35.230Z,28.80
2018-07-25T18:04:03.867Z,28.70
2018-07-25T18:06:32.460Z,28.70
2018-07-25T18:09:00.994Z,28.60
2018-07-25T18:11:29.563Z,28.50
2018-07-25T18:14:03.505Z,28.30
2018-07-25T18:16:32.098Z,28.20
2018-07-25T18:19:00.622Z,28.20
2018-07-25T18:21:29.138Z,28.10
2018-07-25T18:23:57.779Z,28.00
2018-07-25T18:26:26.307Z,28.00
2018-07-25T18:28:54.939Z,28.00
2018-07-25T18:31:23.596Z,27.90
2018-07-25T18:33:52.189Z,27.80
2018-07-25T18:36:20.712Z,27.70
2018-07-25T18:38:49.492Z,27.60
2018-07-25T18:41:18.115Z,27.50
2018-07-25T18:43:46.891Z,27.50
2018-07-25T18:46:15.785Z,27.40
2018-07-25T18:48:44.718Z,27.40
2018-07-25T18:51:13.687Z,27.30
2018-07-25T18:53:42.598Z,27.30
2018-07-25T18:56:11.534Z,27.10
2018-07-25T18:58:40.398Z,26.80
2018-07-25T19:01:09.254Z,26.60
2018-07-25T19:03:38.132Z,26.50
2018-07-25T19:06:06.744Z,26.50
2018-07-25T19:08:35.529Z,26.30
2018-07-25T19:11:04.168Z,26.10
2018-07-25T19:13:34.272Z,25.90
2018-07-25T19:16:03.616Z,25.80
2018-07-25T19:18:32.538Z,25.80
2018-07-25T19:21:01.423Z,25.70
2018-07-25T19:23:30.313Z,25.70
2018-07-25T19:25:59.197Z,25.60
2018-07-25T19:30:55.965Z,25.50
2018-07-25T19:33:24.768Z,25.40
2018-07-25T19:35:53.443Z,25.50
2018-07-25T19:38:21.996Z,25.40
2018-07-25T19:40:50.540Z,25.40
2018-07-25T19:43:19.331Z,25.40
2018-07-25T19:45:47.947Z,25.40
2018-07-25T19:48:16.695Z,25.50
2018-07-25T19:50:45.272Z,25.50
2018-07-25T19:53:14.116Z,25.50
2018-07-25T19:55:42.782Z,25.60
2018-07-25T19:58:11.272Z,25.60
2018-07-25T20:00:39.913Z,25.70
2018-07-25T20:03:08.524Z,25.40
2018-07-25T20:05:37.022Z,25.30
2018-07-25T20:08:06.364Z,25.10
2018-07-25T20:10:36.052Z,24.90
2018-07-25T20:13:04.702Z,24.80
2018-07-25T20:15:38.569Z,24.80
2018-07-25T20:18:07.565Z,24.60
2018-07-25T20:20:36.384Z,24.50
2018-07-25T20:23:05.035Z,24.40
2018-07-25T20:25:33.902Z,24.30
2018-07-25T20:28:02.812Z,24.20
2018-07-25T20:30:31.624Z,24.20
2018-07-25T20:33:00.295Z,24.10
2018-07-25T20:35:28.976Z,24.00
2018-07-25T20:37:57.832Z,24.00
2018-07-25T20:40:26.632Z,23.80
2018-07-25T20:42:55.406Z,23.80
2018-07-25T20:45:24.232Z,23.70
2018-07-25T20:47:53.145Z,23.60
2018-07-25T20:50:23.121Z,23.60
2018-07-25T20:52:52.045Z,23.60
2018-07-25T20:55:20.668Z,23.70
2018-07-25T20:57:49.283Z,23.70
2018-07-25T21:03:02.084Z,23.50
2018-07-25T21:05:30.944Z,23.50
2018-07-25T21:07:59.552Z,23.40
2018-07-25T21:10:28.162Z,23.40
2018-07-25T21:12:56.908Z,23.30
2018-07-25T21:15:25.552Z,23.30
2018-07-25T21:17:54.191Z,23.20
2018-07-25T21:20:23.331Z,23.20
2018-07-25T21:22:51.916Z,23.10
2018-07-25T21:25:21.027Z,23.10
2018-07-25T21:27:49.573Z,23.10
2018-07-25T21:30:18.133Z,23.10
2018-07-25T21:32:46.813Z,23.20
2018-07-25T21:35:15.441Z,23.20
2018-07-25T21:37:44.497Z,23.20
2018-07-25T21:40:13.182Z,23.10
2018-07-25T21:42:41.834Z,23.00
2018-07-25T21:45:10.667Z,22.90
2018-07-25T21:47:39.531Z,22.90
2018-07-25T21:50:08.257Z,22.90
2018-07-25T21:52:36.878Z,22.90
2018-07-25T21:55:05.658Z,23.00
2018-07-25T21:57:34.232Z,23.00
2018-07-25T22:00:03.010Z,22.90
2018-07-25T22:02:31.869Z,22.90
2018-07-25T22:05:00.484Z,22.90
2018-07-25T22:07:29.112Z,22.90
2018-07-25T22:09:57.680Z,22.90
2018-07-25T22:12:26.620Z,22.80
2018-07-25T22:14:55.270Z,22.80
2018-07-25T22:17:23.899Z,22.70
2018-07-25T22:19:52.460Z,22.80
2018-07-25T22:22:21.101Z,22.70
2018-07-25T22:24:49.684Z,22.70
2018-07-25T22:27:18.240Z,22.70
2018-07-25T22:29:46.820Z,22.60
2018-07-25T22:32:15.420Z,22.60
2018-07-25T22:34:44.323Z,22.50
2018-07-25T22:37:12.908Z,22.50
2018-07-25T22:39:41.483Z,22.50
2018-07-25T22:42:10.148Z,22.40
2018-07-25T22:44:39.446Z,22.40
2018-07-25T22:47:07.984Z,22.30
2018-07-25T22:52:05.261Z,22.20
2018-07-25T22:54:33.803Z,22.10
2018-07-25T22:57:02.342Z,22.00
2018-07-25T22:59:30.911Z,22.00
2018-07-25T23:04:27.744Z,21.80
2018-07-25T23:06:56.292Z,21.80
2018-07-25T23:09:24.851Z,21.70
2018-07-25T23:11:53.475Z,21.60
2018-07-25T23:14:22.432Z,21.60
2018-07-25T23:16:51.056Z,21.50
2018-07-25T23:19:19.693Z,21.50
2018-07-25T23:21:48.243Z,21.30
2018-07-25T23:24:16.769Z,21.30
2018-07-25T23:26:45.352Z,21.20
2018-07-25T23:29:14.187Z,21.20
2018-07-25T23:31:42.761Z,21.10
2018-07-25T23:34:11.640Z,21.10
2018-07-25T23:36:40.228Z,21.00
2018-07-25T23:39:10.186Z,21.00
2018-07-25T23:41:38.896Z,20.90
2018-07-25T23:44:07.985Z,20.90
2018-07-25T23:46:38.090Z,20.80
2018-07-25T23:49:06.685Z,20.90
2018-07-25T23:51:35.525Z,20.80
2018-07-25T23:54:04.236Z,20.80
2018-07-25T23:56:32.818Z,20.80
2018-07-25T23:59:01.357Z,20.70
